createdAt,value
2023-02-27T00:00:57.110Z,14.72
2023-02-27T00:01:58.846Z,14.73
2023-02-27T00:03:00.616Z,14.61
2023-02-27T00:04:02.538Z,14.60
2023-02-27T00:05:04.416Z,14.60
2023-02-27T00:06:06.368Z,14.68
2023-02-27T00:07:08.917Z,14.74
2023-02-27T00:08:10.624Z,14.68
2023-02-27T00:09:12.414Z,14.58
2023-02-27T00:10:14.378Z,14.79
2023-02-27T00:11:16.231Z,14.78
2023-02-27T00:12:18.071Z,14.82
2023-02-27T00:13:19.921Z,14.82
2023-02-27T00:14:22.567Z,14.84
2023-02-27T00:15:24.659Z,14.76
2023-02-27T00:16:26.508Z,14.60
2023-02-27T00:17:29.873Z,14.49
2023-02-27T00:18:31.710Z,14.48
2023-02-27T00:19:33.460Z,14.55
2023-02-27T00:20:38.355Z,14.56
2023-02-27T00:21:40.291Z,14.55
2023-02-27T00:22:43.110Z,14.59
2023-02-27T00:23:44.803Z,14.55
2023-02-27T00:24:46.535Z,14.49
2023-02-27T00:25:48.309Z,14.45
2023-02-27T00:26:50.013Z,14.49
2023-02-27T00:27:53.063Z,14.49
2023-02-27T00:28:54.784Z,14.50
2023-02-27T00:29:56.484Z,14.49
2023-02-27T00:30:58.772Z,14.37
2023-02-27T00:32:00.647Z,14.31
2023-02-27T00:33:03.648Z,14.17
2023-02-27T00:34:05.338Z,14.14
2023-02-27T00:35:09.177Z,14.20
2023-02-27T00:36:10.978Z,14.27
2023-02-27T00:37:12.770Z,14.33
2023-02-27T00:38:14.470Z,14.32
2023-02-27T00:39:16.161Z,14.37
2023-02-27T00:40:18.265Z,14.41
2023-02-27T00:41:20.022Z,14.44
2023-02-27T00:42:22.280Z,14.45
2023-02-27T00:43:24.026Z,14.23
2023-02-27T00:44:25.728Z,14.41
2023-02-27T00:45:27.591Z,14.41
2023-02-27T00:46:29.385Z,14.39
2023-02-27T00:47:31.345Z,14.39
2023-02-27T00:48:33.308Z,14.25
2023-02-27T00:49:35.010Z,14.24
2023-02-27T00:50:37.214Z,14.01
2023-02-27T00:51:39.053Z,13.91
2023-02-27T00:52:41.268Z,13.95
2023-02-27T00:53:42.956Z,13.99
2023-02-27T00:54:44.720Z,13.96
2023-02-27T00:55:46.508Z,13.89
2023-02-27T00:56:48.212Z,13.92
2023-02-27T00:57:50.061Z,13.79
2023-02-27T00:58:51.800Z,13.82
2023-02-27T00:59:53.505Z,13.86
2023-02-27T01:00:55.290Z,13.92
2023-02-27T01:01:57.051Z,13.97
2023-02-27T01:02:58.764Z,13.96
2023-02-27T01:04:01.080Z,13.91
2023-02-27T01:05:03.529Z,13.95
2023-02-27T01:06:05.696Z,13.96
2023-02-27T01:07:08.334Z,13.84
2023-02-27T01:08:10.050Z,13.77
2023-02-27T01:09:11.824Z,13.79
2023-02-27T01:10:13.867Z,13.78
2023-02-27T01:11:15.608Z,13.70
2023-02-27T01:12:17.341Z,13.76
2023-02-27T01:13:19.165Z,13.78
2023-02-27T01:14:20.912Z,13.82
2023-02-27T01:15:22.684Z,13.85
2023-02-27T01:16:24.579Z,13.85
2023-02-27T01:17:26.380Z,13.87
2023-02-27T01:18:28.089Z,13.90
2023-02-27T01:19:29.843Z,13.94
2023-02-27T01:20:31.531Z,13.96
2023-02-27T01:21:33.238Z,13.91
2023-02-27T01:22:35.285Z,13.91
2023-02-27T01:23:37.049Z,13.76
2023-02-27T01:24:38.841Z,13.65
2023-02-27T01:25:40.551Z,13.63
2023-02-27T01:26:42.437Z,13.68
2023-02-27T01:27:44.230Z,13.70
2023-02-27T01:28:46.329Z,13.66
2023-02-27T01:29:48.014Z,13.73
2023-02-27T01:30:49.770Z,13.76
2023-02-27T01:31:51.684Z,13.84
2023-02-27T01:32:53.502Z,13.91
2023-02-27T01:33:55.290Z,13.96
2023-02-27T01:34:56.995Z,13.90
2023-02-27T01:35:58.713Z,13.90
2023-02-27T01:37:00.437Z,13.68
2023-02-27T01:38:02.197Z,13.59
2023-02-27T01:39:04.100Z,13.45
2023-02-27T01:40:07.379Z,13.47
2023-02-27T01:41:09.174Z,13.47
2023-02-27T01:42:23.573Z,13.46
2023-02-27T01:43:25.343Z,13.38
2023-02-27T01:44:30.201Z,13.46
2023-02-27T01:45:39.511Z,13.51
2023-02-27T01:46:42.202Z,13.43
2023-02-27T01:47:48.477Z,13.38
2023-02-27T01:48:54.468Z,13.44
2023-02-27T01:49:56.198Z,13.42
2023-02-27T01:51:19.229Z,13.47
2023-02-27T01:52:21.332Z,13.43
2023-02-27T01:53:26.703Z,13.45
2023-02-27T01:54:29.972Z,13.52
2023-02-27T01:55:35.249Z,13.59
2023-02-27T01:56:37.123Z,13.61
2023-02-27T01:57:41.051Z,13.60
2023-02-27T01:58:44.828Z,13.56
2023-02-27T01:59:46.670Z,13.52
2023-02-27T02:00:49.136Z,13.46
2023-02-27T02:01:51.463Z,13.43
2023-02-27T02:03:17.293Z,13.45
2023-02-27T02:04:24.167Z,13.33
2023-02-27T02:05:26.892Z,13.27
2023-02-27T02:06:31.820Z,13.16
2023-02-27T02:07:35.079Z,12.96
2023-02-27T02:08:46.633Z,12.89
2023-02-27T02:09:59.372Z,12.93
2023-02-27T02:11:01.304Z,12.76
2023-02-27T02:12:04.941Z,12.67
2023-02-27T02:13:07.752Z,12.60
2023-02-27T02:14:11.055Z,12.55
2023-02-27T02:15:13.088Z,12.52
2023-02-27T02:16:23.747Z,12.50
2023-02-27T02:18:04.437Z,12.44
2023-02-27T02:19:44.067Z,12.43
2023-02-27T02:21:18.903Z,12.52
2023-02-27T02:22:32.607Z,12.53
2023-02-27T02:23:52.326Z,12.51
2023-02-27T02:25:12.377Z,12.54
2023-02-27T02:26:19.943Z,12.61
2023-02-27T02:27:33.616Z,12.66
2023-02-27T02:29:12.682Z,12.70
2023-02-27T02:30:32.956Z,12.72
2023-02-27T02:32:04.389Z,12.53
2023-02-27T02:33:22.367Z,12.41
2023-02-27T02:35:06.358Z,12.40
2023-02-27T02:36:38.559Z,12.30
2023-02-27T02:38:20.922Z,12.51
2023-02-27T02:39:28.757Z,12.53
2023-02-27T02:40:37.646Z,12.67
2023-02-27T02:41:49.493Z,12.63
2023-02-27T02:43:11.177Z,12.65
2023-02-27T02:44:19.318Z,12.57
2023-02-27T02:45:32.203Z,12.58
2023-02-27T02:46:54.702Z,12.60
2023-02-27T02:48:02.730Z,12.57
2023-02-27T02:49:41.632Z,12.66
2023-02-27T02:50:57.541Z,12.69
2023-02-27T02:52:23.288Z,12.75
2023-02-27T02:53:37.058Z,12.78
2023-02-27T02:54:47.401Z,12.76
2023-02-27T02:55:57.141Z,12.73
2023-02-27T02:57:33.714Z,12.72
2023-02-27T02:58:48.976Z,12.76
2023-02-27T02:59:57.143Z,12.81
2023-02-27T03:01:04.918Z,12.85
2023-02-27T03:02:10.921Z,12.88
2023-02-27T03:03:20.424Z,12.87
2023-02-27T03:04:28.087Z,12.89
2023-02-27T03:05:35.446Z,12.92
2023-02-27T03:06:43.376Z,12.93
2023-02-27T03:07:54.066Z,12.84
2023-02-27T03:09:03.139Z,12.96
2023-02-27T03:10:12.126Z,12.94
2023-02-27T03:11:14.275Z,12.96
2023-02-27T03:12:20.148Z,12.98
2023-02-27T03:13:46.450Z,13.02
2023-02-27T03:15:03.082Z,13.02
2023-02-27T03:16:15.686Z,13.10
2023-02-27T03:17:25.048Z,13.16
2023-02-27T03:18:34.998Z,13.20
2023-02-27T03:20:03.844Z,13.23
2023-02-27T03:21:12.528Z,13.22
2023-02-27T03:22:18.868Z,13.23
2023-02-27T03:23:28.391Z,13.16
2023-02-27T03:24:35.306Z,13.16
2023-02-27T03:25:38.519Z,13.11
2023-02-27T03:26:44.772Z,13.08
2023-02-27T03:27:58.915Z,13.04
2023-02-27T03:29:06.636Z,12.87
2023-02-27T03:30:10.853Z,12.75
2023-02-27T03:31:27.204Z,12.66
2023-02-27T03:32:42.740Z,12.78
2023-02-27T03:34:02.178Z,12.77
2023-02-27T03:35:07.306Z,12.88
2023-02-27T03:36:47.229Z,12.91
2023-02-27T03:38:01.583Z,12.89
2023-02-27T03:39:41.808Z,12.93
2023-02-27T03:40:59.116Z,12.97
2023-02-27T03:42:09.869Z,12.95
2023-02-27T03:43:30.346Z,12.96
2023-02-27T03:44:42.018Z,13.01
2023-02-27T03:45:54.799Z,12.96
2023-02-27T03:46:56.866Z,12.86
2023-02-27T03:47:59.102Z,12.85
2023-02-27T03:49:00.853Z,12.85
2023-02-27T03:50:02.622Z,12.78
2023-02-27T03:51:04.818Z,12.74
2023-02-27T03:52:06.749Z,12.73
2023-02-27T03:53:21.133Z,12.79
2023-02-27T03:54:33.745Z,12.87
2023-02-27T03:55:39.873Z,12.91
2023-02-27T03:56:47.999Z,12.96
2023-02-27T03:57:51.134Z,12.90
2023-02-27T03:58:53.836Z,12.82
2023-02-27T03:59:55.762Z,12.79
2023-02-27T04:00:57.636Z,12.82
2023-02-27T04:02:01.068Z,12.88
2023-02-27T04:03:05.133Z,12.98
2023-02-27T04:04:13.425Z,13.07
2023-02-27T04:05:15.160Z,13.13
2023-02-27T04:06:35.939Z,13.16
2023-02-27T04:07:52.645Z,13.24
2023-02-27T04:08:54.287Z,13.31
2023-02-27T04:10:07.941Z,13.36
2023-02-27T04:11:19.209Z,13.29
2023-02-27T04:12:24.083Z,13.26
2023-02-27T04:13:48.706Z,13.26
2023-02-27T04:15:18.311Z,13.38
2023-02-27T04:16:38.179Z,13.40
2023-02-27T04:18:32.268Z,13.40
2023-02-27T04:19:43.582Z,13.42
2023-02-27T04:20:49.717Z,13.48
2023-02-27T04:22:35.222Z,13.43
2023-02-27T04:23:49.046Z,13.48
2023-02-27T04:25:13.504Z,13.49
2023-02-27T04:26:24.248Z,13.42
2023-02-27T04:27:43.963Z,13.48
2023-02-27T04:28:48.701Z,13.53
2023-02-27T04:30:01.441Z,13.49
2023-02-27T04:31:27.675Z,13.49
2023-02-27T04:32:42.038Z,13.51
2023-02-27T04:33:52.052Z,13.61
2023-02-27T04:34:58.664Z,13.55
2023-02-27T04:36:08.453Z,13.53
2023-02-27T04:37:43.538Z,13.54
2023-02-27T04:38:51.684Z,13.61
2023-02-27T04:39:56.322Z,13.68
2023-02-27T04:41:00.362Z,13.47
2023-02-27T04:42:06.629Z,13.74
2023-02-27T04:43:11.856Z,13.76
2023-02-27T04:44:15.760Z,13.80
2023-02-27T04:45:22.205Z,13.84
2023-02-27T04:46:27.900Z,13.95
2023-02-27T04:47:34.882Z,13.97
2023-02-27T04:48:42.992Z,13.94
2023-02-27T04:49:49.078Z,13.90
2023-02-27T04:51:18.583Z,13.79
2023-02-27T04:52:31.855Z,13.63
2023-02-27T04:53:53.025Z,13.53
2023-02-27T04:54:58.377Z,13.57
2023-02-27T04:56:06.981Z,13.52
2023-02-27T04:57:14.254Z,13.43
2023-02-27T04:58:23.350Z,13.38
2023-02-27T04:59:45.097Z,13.35
2023-02-27T05:00:53.670Z,13.38
2023-02-27T05:02:16.231Z,13.35
2023-02-27T05:03:23.099Z,13.24
2023-02-27T05:04:29.356Z,13.14
2023-02-27T05:05:34.060Z,13.14
2023-02-27T05:06:37.976Z,13.10
2023-02-27T05:07:50.661Z,13.09
2023-02-27T05:09:28.918Z,13.07
2023-02-27T05:10:35.290Z,13.04
2023-02-27T05:11:45.295Z,12.99
2023-02-27T05:13:15.316Z,12.96
2023-02-27T05:14:23.300Z,12.95
2023-02-27T05:15:36.564Z,12.88
2023-02-27T05:16:50.245Z,12.83
2023-02-27T05:18:03.875Z,12.82
2023-02-27T05:19:06.919Z,12.80
2023-02-27T05:20:09.534Z,12.78
2023-02-27T05:21:29.440Z,12.79
2023-02-27T05:22:54.425Z,12.74
2023-02-27T05:24:29.710Z,12.62
2023-02-27T05:25:41.428Z,12.63
2023-02-27T05:27:18.047Z,12.52
2023-02-27T05:28:51.730Z,12.52
2023-02-27T05:30:01.708Z,12.38
2023-02-27T05:31:13.827Z,12.40
2023-02-27T05:32:54.053Z,12.35
2023-02-27T05:34:11.307Z,12.20
2023-02-27T05:35:20.444Z,12.22
2023-02-27T05:36:32.967Z,12.17
2023-02-27T05:37:45.372Z,12.09
2023-02-27T05:38:55.524Z,12.12
2023-02-27T05:39:58.962Z,12.08
2023-02-27T05:41:10.431Z,12.02
2023-02-27T05:42:19.795Z,11.97
2023-02-27T05:43:35.861Z,12.02
2023-02-27T05:44:46.337Z,12.05
2023-02-27T05:45:53.453Z,12.06
2023-02-27T05:47:08.831Z,12.07
2023-02-27T05:48:19.845Z,12.02
2023-02-27T05:49:29.279Z,12.03
2023-02-27T05:50:34.168Z,12.13
2023-02-27T05:51:37.673Z,12.04
2023-02-27T05:52:41.644Z,12.20
2023-02-27T05:53:48.668Z,12.22
2023-02-27T05:55:04.004Z,12.31
2023-02-27T05:56:08.536Z,12.29
2023-02-27T05:57:14.836Z,12.40
2023-02-27T05:58:22.963Z,12.45
2023-02-27T05:59:52.319Z,12.44
2023-02-27T06:00:56.005Z,12.51
2023-02-27T06:01:57.851Z,12.57
2023-02-27T06:02:59.666Z,12.63
2023-02-27T06:04:01.865Z,12.69
2023-02-27T06:05:04.237Z,12.83
2023-02-27T06:06:11.372Z,12.91
2023-02-27T06:07:16.327Z,12.79
2023-02-27T06:08:18.024Z,12.87
2023-02-27T06:09:20.653Z,12.96
2023-02-27T06:10:22.424Z,12.98
2023-02-27T06:11:24.121Z,13.13
2023-02-27T06:12:25.889Z,13.15
2023-02-27T06:13:27.570Z,13.26
2023-02-27T06:14:29.330Z,13.37
2023-02-27T06:15:31.048Z,13.41
2023-02-27T06:16:33.100Z,13.49
2023-02-27T06:17:34.967Z,13.42
2023-02-27T06:18:36.679Z,13.39
2023-02-27T06:19:38.385Z,13.44
2023-02-27T06:20:42.467Z,13.42
2023-02-27T06:21:44.295Z,13.37
2023-02-27T06:22:46.104Z,13.44
2023-02-27T06:23:47.837Z,13.35
2023-02-27T06:24:49.544Z,13.41
2023-02-27T06:25:51.255Z,13.44
2023-02-27T06:26:53.511Z,13.44
2023-02-27T06:27:55.242Z,13.40
2023-02-27T06:28:56.980Z,13.42
2023-02-27T06:29:58.754Z,13.49
2023-02-27T06:31:00.482Z,13.53
2023-02-27T06:32:02.233Z,13.53
2023-02-27T06:33:04.120Z,13.54
2023-02-27T06:34:05.880Z,13.60
2023-02-27T06:35:08.072Z,13.61
2023-02-27T06:36:09.856Z,13.53
2023-02-27T06:37:11.614Z,13.36
2023-02-27T06:38:13.315Z,13.38
2023-02-27T06:39:15.217Z,13.25
2023-02-27T06:40:17.159Z,13.15
2023-02-27T06:41:19.313Z,13.19
2023-02-27T06:42:21.370Z,13.24
2023-02-27T06:43:23.294Z,13.27
2023-02-27T06:44:24.988Z,13.32
2023-02-27T06:45:26.702Z,13.39
2023-02-27T06:46:28.811Z,13.42
2023-02-27T06:47:30.745Z,13.50
2023-02-27T06:48:33.516Z,13.58
2023-02-27T06:49:35.239Z,13.66
2023-02-27T06:50:37.056Z,13.73
2023-02-27T06:51:39.398Z,13.73
2023-02-27T06:52:42.100Z,13.72
2023-02-27T06:53:43.844Z,13.75
2023-02-27T06:54:45.583Z,13.81
2023-02-27T06:55:47.356Z,13.90
2023-02-27T06:56:50.445Z,13.97
2023-02-27T06:57:52.328Z,13.88
2023-02-27T06:58:54.067Z,13.85
2023-02-27T06:59:55.807Z,13.69
2023-02-27T07:01:00.323Z,13.60
2023-02-27T07:02:02.074Z,13.52
2023-02-27T07:03:04.737Z,13.45
2023-02-27T07:04:06.508Z,13.42
2023-02-27T07:05:08.807Z,13.49
2023-02-27T07:06:12.225Z,13.56
2023-02-27T07:07:33.230Z,13.64
2023-02-27T07:08:36.680Z,13.87
2023-02-27T07:09:38.434Z,14.05
2023-02-27T07:10:42.972Z,14.22
2023-02-27T07:11:44.700Z,14.31
2023-02-27T07:12:46.431Z,14.38
2023-02-27T07:13:48.142Z,14.40
2023-02-27T07:14:49.913Z,14.53
2023-02-27T07:15:52.485Z,14.62
2023-02-27T07:16:54.269Z,14.67
2023-02-27T07:17:55.992Z,14.66
2023-02-27T07:18:57.765Z,14.60
2023-02-27T07:19:59.668Z,14.58
2023-02-27T07:21:01.389Z,14.72
2023-02-27T07:22:03.872Z,14.86
2023-02-27T07:23:05.620Z,14.79
2023-02-27T07:24:07.580Z,14.84
2023-02-27T07:25:09.826Z,14.84
2023-02-27T07:26:11.564Z,14.68
2023-02-27T07:27:13.292Z,14.70
2023-02-27T07:28:15.423Z,14.79
2023-02-27T07:29:17.340Z,14.88
2023-02-27T07:30:19.721Z,15.05
2023-02-27T07:31:21.527Z,15.32
2023-02-27T07:32:23.525Z,15.47
2023-02-27T07:33:25.787Z,15.53
2023-02-27T07:34:27.487Z,15.70
2023-02-27T07:35:29.360Z,15.91
2023-02-27T07:36:31.649Z,16.02
2023-02-27T07:37:33.360Z,16.11
2023-02-27T07:38:35.075Z,16.36
2023-02-27T07:39:36.832Z,16.41
2023-02-27T07:40:38.577Z,16.42
2023-02-27T07:41:40.296Z,16.39
2023-02-27T07:42:42.261Z,16.36
2023-02-27T07:43:43.979Z,16.24
2023-02-27T07:44:45.671Z,16.18
2023-02-27T07:45:47.529Z,16.24
2023-02-27T07:46:49.352Z,16.10
2023-02-27T07:47:51.149Z,15.99
2023-02-27T07:48:53.764Z,15.99
2023-02-27T07:49:55.453Z,16.00
2023-02-27T07:50:57.595Z,16.03
2023-02-27T07:51:59.287Z,16.10
2023-02-27T07:53:00.999Z,16.13
2023-02-27T07:54:02.702Z,16.09
2023-02-27T07:55:04.635Z,16.10
2023-02-27T07:56:06.603Z,16.21
2023-02-27T07:57:08.431Z,16.24
2023-02-27T07:58:10.156Z,16.36
2023-02-27T07:59:11.863Z,16.44
2023-02-27T08:00:14.447Z,16.44
2023-02-27T08:01:16.164Z,16.59
2023-02-27T08:02:17.968Z,16.60
2023-02-27T08:03:19.747Z,16.67
2023-02-27T08:04:21.606Z,16.75
2023-02-27T08:05:23.394Z,16.77
2023-02-27T08:06:25.592Z,16.99
2023-02-27T08:07:27.610Z,17.13
2023-02-27T08:08:29.860Z,17.28
2023-02-27T08:09:32.050Z,17.40
2023-02-27T08:10:33.775Z,17.50
2023-02-27T08:11:35.546Z,17.48
2023-02-27T08:12:37.364Z,17.53
2023-02-27T08:14:08.901Z,17.49
2023-02-27T08:15:00.786Z,17.40
2023-02-27T08:16:02.537Z,17.30
2023-02-27T08:17:04.351Z,17.30
2023-02-27T08:18:06.163Z,17.29
2023-02-27T08:19:08.403Z,17.29
2023-02-27T08:20:14.243Z,17.46
2023-02-27T08:21:16.054Z,17.52
2023-02-27T08:22:17.973Z,17.62
2023-02-27T08:23:19.660Z,17.72
2023-02-27T08:24:21.832Z,17.66
2023-02-27T08:25:23.622Z,17.80
2023-02-27T08:26:25.710Z,18.01
2023-02-27T08:27:27.717Z,18.13
2023-02-27T08:28:30.019Z,18.34
2023-02-27T08:29:33.100Z,18.45
2023-02-27T08:30:34.890Z,18.37
2023-02-27T08:31:36.972Z,18.32
2023-02-27T08:32:38.942Z,18.18
2023-02-27T08:33:40.849Z,18.18
2023-02-27T08:34:42.602Z,18.12
2023-02-27T08:35:44.471Z,18.05
2023-02-27T08:36:46.595Z,18.10
2023-02-27T08:37:49.860Z,18.13
2023-02-27T08:38:51.619Z,18.19
2023-02-27T08:39:53.315Z,18.12
2023-02-27T08:40:55.183Z,18.11
2023-02-27T08:41:56.906Z,18.13
2023-02-27T08:42:58.597Z,18.34
2023-02-27T08:44:00.335Z,18.64
2023-02-27T08:45:02.886Z,18.65
2023-02-27T08:46:04.818Z,18.65
2023-02-27T08:47:06.606Z,18.44
2023-02-27T08:48:08.646Z,18.39
2023-02-27T08:49:10.469Z,18.38
2023-02-27T08:50:15.657Z,18.79
2023-02-27T08:51:17.430Z,19.29
2023-02-27T08:52:19.201Z,19.60
2023-02-27T08:53:20.912Z,19.79
2023-02-27T08:54:22.660Z,19.78
2023-02-27T08:55:24.462Z,20.04
2023-02-27T08:56:26.964Z,20.24
2023-02-27T08:57:28.986Z,20.48
2023-02-27T08:58:30.747Z,20.61
2023-02-27T08:59:32.541Z,20.74
2023-02-27T09:00:34.299Z,20.89
2023-02-27T09:01:36.067Z,20.93
2023-02-27T09:02:37.820Z,21.10
2023-02-27T09:03:39.557Z,21.29
2023-02-27T09:04:41.239Z,21.39
2023-02-27T09:05:43.543Z,21.46
2023-02-27T09:06:45.969Z,21.34
2023-02-27T09:07:47.644Z,21.27
2023-02-27T09:08:49.354Z,21.29
2023-02-27T09:09:51.087Z,21.24
2023-02-27T09:10:57.216Z,21.31
2023-02-27T09:11:58.954Z,21.30
2023-02-27T09:13:01.641Z,21.17
2023-02-27T09:14:03.381Z,20.95
2023-02-27T09:15:06.546Z,20.99
2023-02-27T09:16:08.527Z,21.07
2023-02-27T09:17:10.284Z,21.03
2023-02-27T09:18:12.353Z,21.04
2023-02-27T09:19:15.740Z,21.07
2023-02-27T09:20:17.750Z,21.13
2023-02-27T09:21:20.536Z,21.15
2023-02-27T09:22:22.332Z,21.30
2023-02-27T09:23:24.067Z,21.36
2023-02-27T09:24:25.836Z,21.40
2023-02-27T09:25:28.728Z,21.19
2023-02-27T09:26:43.461Z,21.27
2023-02-27T09:27:47.509Z,21.37
2023-02-27T09:28:49.725Z,21.37
2023-02-27T09:29:55.641Z,21.45
2023-02-27T09:31:05.969Z,21.42
2023-02-27T09:32:08.212Z,21.33
2023-02-27T09:33:09.980Z,21.28
2023-02-27T09:34:11.717Z,21.05
2023-02-27T09:35:15.950Z,21.21
2023-02-27T09:36:17.860Z,20.99
2023-02-27T09:37:20.140Z,21.05
2023-02-27T09:38:21.854Z,20.89
2023-02-27T09:39:23.613Z,20.98
2023-02-27T09:40:29.130Z,21.07
2023-02-27T09:41:33.505Z,21.10
2023-02-27T09:42:45.655Z,21.15
2023-02-27T09:43:49.613Z,20.87
2023-02-27T09:44:57.777Z,20.77
2023-02-27T09:46:01.379Z,20.68
2023-02-27T09:47:11.118Z,20.67
2023-02-27T09:48:34.054Z,20.66
2023-02-27T09:49:49.690Z,20.60
2023-02-27T09:50:52.800Z,20.50
2023-02-27T09:51:54.584Z,20.42
2023-02-27T09:52:57.467Z,20.51
2023-02-27T09:54:01.694Z,20.65
2023-02-27T09:55:11.687Z,20.77
2023-02-27T09:56:29.468Z,20.85
2023-02-27T09:57:41.185Z,20.94
2023-02-27T09:59:16.735Z,20.92
2023-02-27T10:00:24.252Z,20.84
2023-02-27T10:01:32.854Z,20.66
2023-02-27T10:03:03.287Z,20.72
2023-02-27T10:04:33.546Z,20.73
2023-02-27T10:06:14.630Z,20.81
2023-02-27T10:08:02.668Z,20.57
2023-02-27T10:09:16.320Z,20.65
2023-02-27T10:10:35.905Z,20.59
2023-02-27T10:12:14.561Z,20.93
2023-02-27T10:13:42.959Z,21.25
2023-02-27T10:14:57.699Z,21.13
2023-02-27T10:16:00.441Z,20.98
2023-02-27T10:17:06.534Z,20.74
2023-02-27T10:18:25.376Z,20.52
2023-02-27T10:19:34.250Z,20.42
2023-02-27T10:20:41.955Z,20.43
2023-02-27T10:21:48.980Z,20.48
2023-02-27T10:22:53.446Z,20.29
2023-02-27T10:24:02.068Z,20.40
2023-02-27T10:25:25.003Z,20.41
2023-02-27T10:26:39.653Z,20.57
2023-02-27T10:27:45.775Z,20.63
2023-02-27T10:28:47.740Z,20.69
2023-02-27T10:29:50.314Z,20.62
2023-02-27T10:30:56.037Z,20.58
2023-02-27T10:32:06.224Z,20.41
2023-02-27T10:33:28.119Z,20.43
2023-02-27T10:34:31.555Z,20.35
2023-02-27T10:35:39.557Z,20.44
2023-02-27T10:36:41.382Z,20.51
2023-02-27T10:37:49.784Z,20.46
2023-02-27T10:38:56.090Z,20.38
2023-02-27T10:40:04.536Z,20.17
2023-02-27T10:41:10.291Z,19.99
2023-02-27T10:42:13.784Z,19.81
2023-02-27T10:43:19.318Z,19.47
2023-02-27T10:44:21.457Z,19.41
2023-02-27T10:45:23.802Z,19.22
2023-02-27T10:46:29.549Z,19.13
2023-02-27T10:47:31.553Z,19.13
2023-02-27T10:48:33.549Z,19.02
2023-02-27T10:49:37.835Z,18.92
2023-02-27T10:50:43.209Z,18.96
2023-02-27T10:51:47.126Z,19.05
2023-02-27T10:52:55.173Z,18.98
2023-02-27T10:54:14.869Z,18.81
2023-02-27T10:55:20.304Z,18.56
2023-02-27T10:56:28.643Z,18.46
2023-02-27T10:57:36.815Z,18.48
2023-02-27T10:58:38.608Z,18.55
2023-02-27T10:59:41.869Z,18.67
2023-02-27T11:00:53.408Z,18.79
2023-02-27T11:01:57.197Z,18.92
2023-02-27T11:02:59.808Z,18.99
2023-02-27T11:04:01.532Z,18.94
2023-02-27T11:05:04.596Z,18.94
2023-02-27T11:06:19.867Z,19.00
2023-02-27T11:07:38.899Z,19.20
2023-02-27T11:08:40.654Z,19.28
2023-02-27T11:09:43.371Z,19.32
2023-02-27T11:11:06.908Z,19.24
2023-02-27T11:12:11.401Z,19.03
2023-02-27T11:13:24.787Z,18.76
2023-02-27T11:14:28.480Z,18.86
2023-02-27T11:15:36.533Z,18.92
2023-02-27T11:16:52.525Z,18.92
2023-02-27T11:17:55.238Z,18.92
2023-02-27T11:18:57.968Z,18.81
2023-02-27T11:20:02.365Z,18.74
2023-02-27T11:21:23.186Z,18.66
2023-02-27T11:22:29.948Z,18.96
2023-02-27T11:23:34.020Z,19.15
2023-02-27T11:24:35.809Z,19.31
2023-02-27T11:25:37.536Z,19.49
2023-02-27T11:26:53.349Z,19.73
2023-02-27T11:28:22.880Z,19.97
2023-02-27T11:29:25.071Z,20.09
2023-02-27T11:30:29.259Z,20.14
2023-02-27T11:31:32.948Z,20.19
2023-02-27T11:32:49.013Z,20.33
2023-02-27T11:33:57.581Z,20.43
2023-02-27T11:34:59.454Z,20.34
2023-02-27T11:36:02.459Z,20.22
2023-02-27T11:37:07.489Z,20.12
2023-02-27T11:38:19.508Z,19.99
2023-02-27T11:39:32.046Z,19.91
2023-02-27T11:40:39.539Z,19.99
2023-02-27T11:41:44.994Z,19.91
2023-02-27T11:42:53.644Z,19.89
2023-02-27T11:43:57.672Z,19.82
2023-02-27T11:45:07.564Z,19.81
2023-02-27T11:46:45.207Z,19.55
2023-02-27T11:47:40.691Z,19.42
2023-02-27T11:49:08.386Z,19.29
2023-02-27T11:50:16.381Z,19.37
2023-02-27T11:51:27.409Z,19.23
2023-02-27T11:52:32.377Z,19.19
2023-02-27T11:54:07.941Z,19.18
2023-02-27T11:55:17.958Z,19.04
2023-02-27T11:56:26.697Z,18.88
2023-02-27T11:57:34.694Z,18.72
2023-02-27T11:58:44.933Z,18.78
2023-02-27T11:59:47.953Z,18.73
2023-02-27T12:00:57.441Z,18.66
2023-02-27T12:02:11.442Z,18.60
2023-02-27T12:03:25.218Z,18.68
2023-02-27T12:04:39.987Z,18.58
2023-02-27T12:05:48.183Z,18.51
2023-02-27T12:07:07.758Z,18.51
2023-02-27T12:08:42.290Z,18.25
2023-02-27T12:10:11.181Z,18.16
2023-02-27T12:11:30.240Z,18.17
2023-02-27T12:12:44.298Z,18.18
2023-02-27T12:13:51.444Z,18.15
2023-02-27T12:15:01.178Z,18.25
2023-02-27T12:16:24.730Z,18.31
2023-02-27T12:17:35.069Z,18.31
2023-02-27T12:18:57.973Z,18.33
2023-02-27T12:20:21.214Z,18.43
2023-02-27T12:21:28.627Z,18.52
2023-02-27T12:22:35.808Z,18.54
2023-02-27T12:23:56.272Z,18.50
2023-02-27T12:25:04.575Z,18.63
2023-02-27T12:26:08.537Z,18.65
2023-02-27T12:27:19.253Z,18.77
2023-02-27T12:28:51.344Z,18.80
2023-02-27T12:30:24.428Z,18.89
2023-02-27T12:31:35.568Z,18.95
2023-02-27T12:32:43.793Z,18.98
2023-02-27T12:34:02.553Z,18.98
2023-02-27T12:35:17.429Z,18.95
2023-02-27T12:36:19.192Z,18.93
2023-02-27T12:37:26.520Z,18.82
2023-02-27T12:38:29.106Z,18.73
2023-02-27T12:39:32.277Z,18.70
2023-02-27T12:40:40.116Z,18.58
2023-02-27T12:42:03.967Z,18.49
2023-02-27T12:43:39.352Z,18.49
2023-02-27T12:44:42.012Z,18.31
2023-02-27T12:45:56.801Z,18.30
2023-02-27T12:47:18.522Z,18.27
2023-02-27T12:48:55.301Z,18.36
2023-02-27T12:50:03.037Z,18.46
2023-02-27T12:51:21.402Z,18.41
2023-02-27T12:52:56.886Z,18.46
2023-02-27T12:54:16.688Z,18.44
2023-02-27T12:55:27.092Z,18.37
2023-02-27T12:56:48.974Z,18.43
2023-02-27T12:58:22.331Z,18.57
2023-02-27T12:59:36.018Z,18.64
2023-02-27T13:00:50.690Z,18.63
2023-02-27T13:02:04.008Z,18.73
2023-02-27T13:03:15.291Z,18.71
2023-02-27T13:04:29.297Z,18.71
2023-02-27T13:05:51.769Z,18.69
2023-02-27T13:07:08.671Z,18.71
2023-02-27T13:08:44.528Z,18.94
2023-02-27T13:10:01.574Z,18.74
2023-02-27T13:11:21.833Z,18.76
2023-02-27T13:12:44.491Z,18.81
2023-02-27T13:13:56.642Z,18.81
2023-02-27T13:15:04.545Z,18.86
2023-02-27T13:16:12.611Z,18.97
2023-02-27T13:17:37.558Z,19.09
2023-02-27T13:18:45.770Z,19.06
2023-02-27T13:19:50.950Z,19.09
2023-02-27T13:21:04.330Z,19.15
2023-02-27T13:22:23.796Z,19.15
2023-02-27T13:23:28.268Z,19.28
2023-02-27T13:24:32.110Z,19.37
2023-02-27T13:25:38.314Z,19.45
2023-02-27T13:26:48.263Z,19.25
2023-02-27T13:28:02.173Z,19.16
2023-02-27T13:29:05.203Z,19.24
2023-02-27T13:30:23.009Z,19.27
2023-02-27T13:31:42.566Z,19.24
2023-02-27T13:32:44.855Z,19.18
2023-02-27T13:34:02.656Z,19.19
2023-02-27T13:35:28.420Z,19.10
2023-02-27T13:36:44.883Z,19.05
2023-02-27T13:38:27.699Z,19.13
2023-02-27T13:39:45.650Z,19.26
2023-02-27T13:40:47.437Z,19.30
2023-02-27T13:41:49.233Z,19.32
2023-02-27T13:42:53.464Z,19.40
2023-02-27T13:43:56.353Z,19.44
2023-02-27T13:45:25.527Z,19.36
2023-02-27T13:46:28.691Z,19.34
2023-02-27T13:47:33.109Z,19.37
2023-02-27T13:48:41.868Z,19.40
2023-02-27T13:49:43.869Z,19.33
2023-02-27T13:50:50.444Z,19.45
2023-02-27T13:51:53.779Z,19.48
2023-02-27T13:52:55.565Z,19.35
2023-02-27T13:54:18.402Z,19.20
2023-02-27T13:55:37.814Z,19.22
2023-02-27T13:56:44.617Z,19.29
2023-02-27T13:57:47.832Z,19.36
2023-02-27T13:58:50.952Z,19.31
2023-02-27T14:00:21.849Z,19.31
2023-02-27T14:01:28.863Z,19.26
2023-02-27T14:02:33.503Z,19.18
2023-02-27T14:03:35.435Z,19.19
2023-02-27T14:04:58.879Z,19.28
2023-02-27T14:06:03.811Z,19.32
2023-02-27T14:07:18.737Z,19.39
2023-02-27T14:08:37.544Z,19.41
2023-02-27T14:09:42.690Z,19.40
2023-02-27T14:11:10.267Z,19.44
2023-02-27T14:12:42.493Z,19.48
2023-02-27T14:13:45.887Z,19.50
2023-02-27T14:14:50.421Z,19.41
2023-02-27T14:15:56.227Z,19.46
2023-02-27T14:16:59.009Z,19.42
2023-02-27T14:18:15.947Z,19.42
2023-02-27T14:19:24.637Z,19.46
2023-02-27T14:20:27.369Z,19.43
2023-02-27T14:22:03.116Z,19.39
2023-02-27T14:23:17.104Z,19.28
2023-02-27T14:24:22.613Z,19.19
2023-02-27T14:25:33.841Z,19.12
2023-02-27T14:26:38.831Z,19.15
2023-02-27T14:27:43.577Z,19.18
2023-02-27T14:28:56.003Z,19.19
2023-02-27T14:30:02.949Z,19.18
2023-02-27T14:31:07.563Z,19.12
2023-02-27T14:32:22.292Z,18.99
2023-02-27T14:33:48.450Z,18.89
2023-02-27T14:34:52.314Z,19.01
2023-02-27T14:36:02.260Z,19.07
2023-02-27T14:37:10.305Z,19.03
2023-02-27T14:38:15.663Z,19.03
2023-02-27T14:39:28.821Z,19.07
2023-02-27T14:40:36.607Z,19.13